createdAt,value
2022-08-05T00:01:35.928Z,80.85
2022-08-05T00:04:17.492Z,81.42
2022-08-05T00:06:47.299Z,80.95
2022-08-05T00:09:19.507Z,80.19
2022-08-05T00:11:49.534Z,80.55
2022-08-05T00:14:27.864Z,81.72
2022-08-05T00:16:59.053Z,79.66
2022-08-05T00:19:33.352Z,79.44
2022-08-05T00:22:02.660Z,81.58
2022-08-05T00:24:31.571Z,84.95
2022-08-05T00:26:59.998Z,86.50
2022-08-05T00:29:37.877Z,83.39
2022-08-05T00:32:12.325Z,81.09
2022-08-05T00:35:05.571Z,81.79
2022-08-05T00:37:35.396Z,81.72
2022-08-05T00:40:05.127Z,79.91
2022-08-05T00:42:40.394Z,83.15
2022-08-05T00:45:11.617Z,84.20
2022-08-05T00:47:56.966Z,84.72
2022-08-05T00:50:31.755Z,85.64
2022-08-05T00:53:00.194Z,85.92
2022-08-05T00:55:34.245Z,85.80
2022-08-05T00:58:11.991Z,86.50
2022-08-05T01:00:42.083Z,87.51
2022-08-05T01:03:22.769Z,85.41
2022-08-05T01:05:51.968Z,85.19
2022-08-05T01:08:41.365Z,85.68
2022-08-05T01:11:22.380Z,86.90
2022-08-05T01:14:08.503Z,85.91
2022-08-05T01:16:45.190Z,87.08
2022-08-05T01:19:57.004Z,87.10
2022-08-05T01:22:41.798Z,86.96
2022-08-05T01:25:40.690Z,88.07
2022-08-05T01:28:24.532Z,88.84
2022-08-05T01:30:55.995Z,88.39
2022-08-05T01:33:35.147Z,90.69
2022-08-05T01:36:13.224Z,88.58
2022-08-05T01:38:48.581Z,94.58
2022-08-05T01:41:22.740Z,91.68
2022-08-05T01:43:57.798Z,90.62
2022-08-05T01:46:41.357Z,92.95
2022-08-05T01:49:22.792Z,91.41
2022-08-05T01:51:53.348Z,90.17
2022-08-05T01:54:25.713Z,89.03
2022-08-05T01:58:09.706Z,85.91
2022-08-05T01:59:51.141Z,89.45
2022-08-05T02:02:26.136Z,91.35
2022-08-05T02:04:59.853Z,91.57
2022-08-05T02:07:30.428Z,91.27
2022-08-05T02:10:00.385Z,89.84
2022-08-05T02:12:36.017Z,90.79
2022-08-05T02:15:12.345Z,89.15
2022-08-05T02:18:32.403Z,90.22
2022-08-05T02:20:41.714Z,92.70
2022-08-05T02:23:13.532Z,100.00
2022-08-05T02:25:50.085Z,100.00
2022-08-05T02:28:29.124Z,100.00
2022-08-05T02:31:04.163Z,100.00
2022-08-05T02:33:39.380Z,100.00
2022-08-05T02:36:13.358Z,100.00
2022-08-05T02:38:45.540Z,100.00
2022-08-05T02:41:28.441Z,100.00
2022-08-05T02:44:12.037Z,100.00
2022-08-05T02:46:58.989Z,100.00
2022-08-05T02:49:35.674Z,100.00
2022-08-05T02:52:09.723Z,100.00
2022-08-05T02:54:42.669Z,100.00
2022-08-05T02:58:10.570Z,100.00
2022-08-05T03:00:12.949Z,100.00
2022-08-05T03:02:45.491Z,100.00
2022-08-05T03:05:16.500Z,100.00
2022-08-05T03:08:00.506Z,100.00
2022-08-05T03:10:33.897Z,100.00
2022-08-05T03:15:29.545Z,100.00
2022-08-05T03:17:59.412Z,100.00
2022-08-05T03:20:28.113Z,100.00
2022-08-05T03:22:58.132Z,100.00
2022-08-05T03:25:32.833Z,100.00
2022-08-05T03:28:18.485Z,100.00
2022-08-05T03:30:49.106Z,100.00
2022-08-05T03:33:19.838Z,100.00
2022-08-05T03:35:49.847Z,100.00
2022-08-05T03:38:32.878Z,100.00
2022-08-05T03:41:08.267Z,100.00
2022-08-05T03:44:08.815Z,100.00
2022-08-05T03:46:29.712Z,100.00
2022-08-05T03:49:02.272Z,100.00
2022-08-05T03:52:37.527Z,100.00
2022-08-05T03:55:52.466Z,100.00
2022-08-05T03:57:29.207Z,100.00
2022-08-05T04:00:15.938Z,100.00
2022-08-05T04:02:58.649Z,100.00
2022-08-05T04:05:33.590Z,100.00
2022-08-05T04:08:05.514Z,100.00
2022-08-05T04:10:38.116Z,100.00
2022-08-05T04:13:08.599Z,100.00
2022-08-05T04:15:37.192Z,100.00
2022-08-05T04:18:09.745Z,100.00
2022-08-05T04:20:41.372Z,100.00
2022-08-05T04:23:12.677Z,100.00
2022-08-05T04:26:00.510Z,100.00
2022-08-05T04:28:30.834Z,100.00
2022-08-05T04:31:01.340Z,100.00
2022-08-05T04:33:54.282Z,100.00
2022-08-05T04:36:45.306Z,100.00
2022-08-05T04:39:08.872Z,100.00
2022-08-05T04:41:38.673Z,100.00
2022-08-05T04:44:08.896Z,100.00
2022-08-05T04:46:38.905Z,100.00
2022-08-05T04:49:12.367Z,100.00
2022-08-05T04:51:44.690Z,100.00
2022-08-05T04:54:14.870Z,100.00
2022-08-05T04:56:43.555Z,100.00
2022-08-05T04:59:21.449Z,100.00
2022-08-05T05:02:06.993Z,100.00
2022-08-05T05:04:38.262Z,100.00
2022-08-05T05:07:09.507Z,100.00
2022-08-05T05:09:38.166Z,100.00
2022-08-05T05:12:07.072Z,100.00
2022-08-05T05:14:36.200Z,100.00
2022-08-05T05:17:07.523Z,100.00
2022-08-05T05:19:44.150Z,100.00
2022-08-05T05:22:23.817Z,100.00
2022-08-05T05:24:57.277Z,100.00
2022-08-05T05:27:44.434Z,100.00
2022-08-05T05:30:31.143Z,100.00
2022-08-05T05:33:09.121Z,98.02
2022-08-05T05:35:47.707Z,97.06
2022-08-05T05:38:26.719Z,91.27
2022-08-05T05:40:56.934Z,91.32
2022-08-05T05:43:54.483Z,97.63
2022-08-05T05:46:17.246Z,95.79
2022-08-05T05:48:48.183Z,100.00
2022-08-05T05:51:22.018Z,100.00
2022-08-05T05:53:57.977Z,100.00
2022-08-05T05:56:32.182Z,100.00
2022-08-05T05:59:05.248Z,100.00
2022-08-05T06:01:37.847Z,99.67
2022-08-05T06:04:11.251Z,100.00
2022-08-05T06:06:41.603Z,90.29
2022-08-05T06:09:17.389Z,86.71
2022-08-05T06:12:02.006Z,85.29
2022-08-05T06:14:31.359Z,84.61
2022-08-05T06:17:01.946Z,83.85
2022-08-05T06:19:56.907Z,83.62
2022-08-05T06:22:29.853Z,80.33
2022-08-05T06:24:59.932Z,74.96
2022-08-05T06:28:09.029Z,72.10
2022-08-05T06:30:19.873Z,75.08
2022-08-05T06:32:50.786Z,73.40
2022-08-05T06:36:03.123Z,64.95
2022-08-05T06:38:11.754Z,60.69
2022-08-05T06:40:44.332Z,63.56
2022-08-05T06:43:59.047Z,62.93
2022-08-05T06:46:07.475Z,59.71
2022-08-05T06:48:55.584Z,60.46
2022-08-05T06:51:30.126Z,58.08
2022-08-05T06:54:00.059Z,53.05
2022-08-05T06:56:30.438Z,54.84
2022-08-05T06:59:03.276Z,55.68
2022-08-05T07:01:32.246Z,55.20
2022-08-05T07:04:02.593Z,54.29
2022-08-05T07:06:32.250Z,54.09
2022-08-05T07:09:04.005Z,57.27
2022-08-05T07:11:36.988Z,52.77
2022-08-05T07:14:29.531Z,48.85
2022-08-05T07:17:58.406Z,45.91
2022-08-05T07:20:31.505Z,47.28
2022-08-05T07:22:39.905Z,48.09
2022-08-05T07:25:55.516Z,46.24
2022-08-05T07:28:08.220Z,47.16
2022-08-05T07:30:39.847Z,48.97
2022-08-05T07:33:16.028Z,51.93
2022-08-05T07:36:04.000Z,45.89
2022-08-05T07:38:43.178Z,46.82
2022-08-05T07:42:06.892Z,41.27
2022-08-05T07:44:19.220Z,41.52
2022-08-05T07:46:49.718Z,40.96
2022-08-05T07:49:19.601Z,41.42
2022-08-05T07:51:53.103Z,40.24
2022-08-05T07:54:31.510Z,43.05
2022-08-05T07:57:18.148Z,39.77
2022-08-05T07:59:53.722Z,40.94
2022-08-05T08:02:31.248Z,40.56
2022-08-05T08:05:15.405Z,38.93
2022-08-05T08:08:00.077Z,38.65
2022-08-05T08:10:29.527Z,37.32
2022-08-05T08:12:58.876Z,38.63
2022-08-05T08:16:33.785Z,38.67
2022-08-05T08:18:20.897Z,37.28
2022-08-05T08:21:02.871Z,37.32
2022-08-05T08:24:02.356Z,36.56
2022-08-05T08:26:29.707Z,36.10
2022-08-05T08:29:22.244Z,35.08
2022-08-05T08:31:49.558Z,34.66
2022-08-05T08:34:18.659Z,36.90
2022-08-05T08:36:51.893Z,35.20
2022-08-05T08:39:24.926Z,36.44
2022-08-05T08:41:59.598Z,35.50
2022-08-05T08:45:19.858Z,35.20
2022-08-05T08:48:06.381Z,34.81
2022-08-05T08:50:31.164Z,33.88
2022-08-05T08:53:07.858Z,33.24
2022-08-05T08:56:04.182Z,33.98
2022-08-05T08:58:43.910Z,34.40
2022-08-05T09:01:18.230Z,35.72
2022-08-05T09:03:54.245Z,35.34
2022-08-05T09:06:29.874Z,34.02
2022-08-05T09:09:01.209Z,34.32
2022-08-05T09:11:51.051Z,33.32
2022-08-05T09:14:57.764Z,33.80
2022-08-05T09:17:40.908Z,32.17
2022-08-05T09:20:04.888Z,31.19
2022-08-05T09:23:07.960Z,32.85
2022-08-05T09:26:01.137Z,32.10
2022-08-05T09:28:32.462Z,32.12
2022-08-05T09:31:18.258Z,31.68
2022-08-05T09:33:52.821Z,31.32
2022-08-05T09:36:27.928Z,28.67
2022-08-05T09:39:16.635Z,28.00
2022-08-05T09:41:58.771Z,27.22
2022-08-05T09:44:40.436Z,28.39
2022-08-05T09:47:12.831Z,27.41
2022-08-05T09:49:57.098Z,26.70
2022-08-05T09:52:32.901Z,26.55
2022-08-05T09:55:55.158Z,27.71
2022-08-05T09:57:54.827Z,28.59
2022-08-05T10:00:30.551Z,24.48
2022-08-05T10:02:59.396Z,23.88
2022-08-05T10:05:32.958Z,23.78
2022-08-05T10:08:34.817Z,23.50
2022-08-05T10:10:54.666Z,24.37
2022-08-05T10:13:46.302Z,26.99
2022-08-05T10:16:37.736Z,26.34
2022-08-05T10:19:13.800Z,25.87
2022-08-05T10:21:42.302Z,25.80
2022-08-05T10:24:14.040Z,25.34
2022-08-05T10:26:51.953Z,24.20
2022-08-05T10:29:24.058Z,23.81
2022-08-05T10:32:54.860Z,23.42
2022-08-05T10:35:01.464Z,23.71
2022-08-05T10:37:41.368Z,23.79
2022-08-05T10:40:27.923Z,24.39
2022-08-05T10:43:02.681Z,26.53
2022-08-05T10:45:41.772Z,23.86
2022-08-05T10:48:38.331Z,24.97
2022-08-05T10:51:28.339Z,25.60
2022-08-05T10:54:01.523Z,23.80
2022-08-05T10:56:47.192Z,24.74
2022-08-05T11:00:02.794Z,25.77
2022-08-05T11:02:14.093Z,23.69
2022-08-05T11:04:47.591Z,23.40
2022-08-05T11:07:18.835Z,23.82
2022-08-05T11:10:03.790Z,24.16
2022-08-05T11:12:50.299Z,25.39
2022-08-05T11:15:22.640Z,27.76
2022-08-05T11:18:00.280Z,26.52
2022-08-05T11:20:41.429Z,25.68
2022-08-05T11:24:04.326Z,25.24
2022-08-05T11:26:28.310Z,27.14
2022-08-05T11:29:06.824Z,27.63
2022-08-05T11:31:56.299Z,27.18
2022-08-05T11:34:40.011Z,26.45
2022-08-05T11:38:29.001Z,25.45
2022-08-05T11:41:12.659Z,26.41
2022-08-05T11:44:06.656Z,24.58
2022-08-05T11:46:37.896Z,22.09
2022-08-05T11:49:26.307Z,20.72
2022-08-05T11:51:54.776Z,22.90
2022-08-05T11:54:33.131Z,23.32
2022-08-05T11:57:08.678Z,21.90
2022-08-05T11:59:54.949Z,21.78
2022-08-05T12:02:31.603Z,23.92
2022-08-05T12:05:08.233Z,26.10
2022-08-05T12:08:03.301Z,25.28
2022-08-05T12:10:45.371Z,24.08
2022-08-05T12:13:17.233Z,23.65
2022-08-05T12:15:59.061Z,23.39
2022-08-05T12:18:33.981Z,24.46
2022-08-05T12:21:18.472Z,24.39
2022-08-05T12:23:59.941Z,22.94
2022-08-05T12:26:32.915Z,24.14
2022-08-05T12:29:03.191Z,23.26
2022-08-05T12:31:46.082Z,23.23
2022-08-05T12:34:21.121Z,23.34
2022-08-05T12:36:52.417Z,22.96
2022-08-05T12:39:21.003Z,23.40
2022-08-05T12:41:49.480Z,22.99
2022-08-05T12:44:32.685Z,22.90
2022-08-05T12:47:03.889Z,22.72
2022-08-05T12:50:04.681Z,24.33
2022-08-05T12:52:37.761Z,24.16
2022-08-05T12:55:22.061Z,27.63
2022-08-05T12:58:49.831Z,26.98
2022-08-05T13:02:00.874Z,24.36
2022-08-05T13:03:41.575Z,24.33
2022-08-05T13:06:15.878Z,24.39
2022-08-05T13:08:51.583Z,24.21
2022-08-05T13:11:59.951Z,26.04
2022-08-05T13:14:19.984Z,25.15
2022-08-05T13:16:59.221Z,25.84
2022-08-05T13:19:51.125Z,26.70
2022-08-05T13:22:29.331Z,26.98
2022-08-05T13:25:05.054Z,28.16
2022-08-05T13:27:38.049Z,25.90
2022-08-05T13:30:34.893Z,24.57
2022-08-05T13:33:00.799Z,23.43
2022-08-05T13:35:47.088Z,23.00
2022-08-05T13:38:30.459Z,24.07
2022-08-05T13:41:00.280Z,25.70
2022-08-05T13:43:44.651Z,24.29
2022-08-05T13:46:30.836Z,23.46
2022-08-05T13:49:06.066Z,23.49
2022-08-05T13:51:46.059Z,23.90
2022-08-05T13:54:16.466Z,23.30
2022-08-05T13:56:51.115Z,23.51
2022-08-05T13:59:24.308Z,23.60
2022-08-05T14:01:57.804Z,22.93
2022-08-05T14:04:49.194Z,21.95
2022-08-05T14:07:25.850Z,23.25
2022-08-05T14:10:12.349Z,22.04
2022-08-05T14:12:42.651Z,22.72
2022-08-05T14:16:07.159Z,22.41
2022-08-05T14:18:01.484Z,22.07
2022-08-05T14:20:30.818Z,22.00
2022-08-05T14:23:01.133Z,23.73
2022-08-05T14:25:31.073Z,23.46
2022-08-05T14:27:59.642Z,26.49
2022-08-05T14:30:29.893Z,23.00
2022-08-05T14:32:58.940Z,22.06
2022-08-05T14:35:36.314Z,23.14
2022-08-05T14:38:07.356Z,22.38
2022-08-05T14:40:55.936Z,23.63
2022-08-05T14:43:59.159Z,22.44
2022-08-05T14:46:13.520Z,22.51
2022-08-05T14:48:41.900Z,23.25
2022-08-05T14:51:15.371Z,23.34
2022-08-05T14:53:46.203Z,22.44
2022-08-05T14:56:34.638Z,22.91
2022-08-05T14:59:06.465Z,23.77
2022-08-05T15:01:47.602Z,24.62
2022-08-05T15:04:20.774Z,23.36
2022-08-05T15:06:51.469Z,24.72
2022-08-05T15:09:51.645Z,24.46
2022-08-05T15:12:16.341Z,24.57
2022-08-05T15:14:50.191Z,23.47
2022-08-05T15:17:47.302Z,23.92
2022-08-05T15:20:18.217Z,24.16
2022-08-05T15:22:52.176Z,24.46
2022-08-05T15:25:52.968Z,24.70
2022-08-05T15:28:14.720Z,24.34
2022-08-05T15:30:45.913Z,24.76
2022-08-05T15:34:04.468Z,24.17
2022-08-05T15:36:04.931Z,24.64
2022-08-05T15:38:41.053Z,24.84
2022-08-05T15:41:23.358Z,24.99
2022-08-05T15:43:54.631Z,24.42
2022-08-05T15:46:24.120Z,26.06
2022-08-05T15:49:01.200Z,25.13
2022-08-05T15:52:03.837Z,25.29
2022-08-05T15:54:35.094Z,25.18
2022-08-05T15:57:08.104Z,24.63
2022-08-05T15:59:38.255Z,25.06
2022-08-05T16:02:09.438Z,25.13
2022-08-05T16:04:42.790Z,26.15
2022-08-05T16:07:11.343Z,25.72
2022-08-05T16:09:42.180Z,26.89
2022-08-05T16:12:13.453Z,31.46
2022-08-05T16:14:43.643Z,32.83
2022-08-05T16:17:12.518Z,33.50
2022-08-05T16:20:04.552Z,34.13
2022-08-05T16:22:34.138Z,34.13
2022-08-05T16:25:09.567Z,34.82
2022-08-05T16:27:59.721Z,35.48
2022-08-05T16:30:30.828Z,35.04
2022-08-05T16:33:01.059Z,35.41
2022-08-05T16:35:32.107Z,36.01
2022-08-05T16:38:24.510Z,37.75
2022-08-05T16:40:55.288Z,37.66
2022-08-05T16:43:32.365Z,37.10
2022-08-05T16:46:06.200Z,38.25
2022-08-05T16:48:41.405Z,38.63
2022-08-05T16:51:11.155Z,38.72
2022-08-05T16:54:05.864Z,38.80
2022-08-05T16:56:33.932Z,38.52
2022-08-05T16:59:07.626Z,38.32
2022-08-05T17:01:52.982Z,38.00
2022-08-05T17:04:23.798Z,40.19
2022-08-05T17:06:55.487Z,40.06
2022-08-05T17:09:24.008Z,41.17
2022-08-05T17:11:59.766Z,40.83
2022-08-05T17:14:37.447Z,38.98
2022-08-05T17:17:09.347Z,38.63
2022-08-05T17:19:45.565Z,39.50
2022-08-05T17:22:17.914Z,42.42
2022-08-05T17:24:57.094Z,44.70
2022-08-05T17:27:33.315Z,43.77
2022-08-05T17:30:07.039Z,45.95
2022-08-05T17:32:42.148Z,46.07
2022-08-05T17:35:12.264Z,46.37
2022-08-05T17:37:45.556Z,48.71
2022-08-05T17:40:22.289Z,47.83
2022-08-05T17:42:53.047Z,46.89
2022-08-05T17:45:38.181Z,46.91
2022-08-05T17:48:08.928Z,46.03
2022-08-05T17:50:37.538Z,49.41
2022-08-05T17:53:08.700Z,48.84
2022-08-05T17:55:39.646Z,49.78
2022-08-05T17:58:12.873Z,49.49
2022-08-05T18:00:47.630Z,49.36
2022-08-05T18:06:11.189Z,50.86
2022-08-05T18:08:44.499Z,49.50
2022-08-05T18:11:23.336Z,49.63
2022-08-05T18:13:53.440Z,50.20
2022-08-05T18:16:23.342Z,53.89
2022-08-05T18:18:52.034Z,51.07
2022-08-05T18:21:22.989Z,51.61
2022-08-05T18:23:55.063Z,52.15
2022-08-05T18:26:29.071Z,52.39
2022-08-05T18:29:00.951Z,54.01
2022-08-05T18:31:33.850Z,55.11
2022-08-05T18:34:06.205Z,52.99
2022-08-05T18:36:41.556Z,53.56
2022-08-05T18:39:41.781Z,52.80
2022-08-05T18:42:04.896Z,53.21
2022-08-05T18:44:51.472Z,53.65
2022-08-05T18:47:26.653Z,53.40
2022-08-05T18:50:15.656Z,51.36
2022-08-05T18:52:51.114Z,50.98
2022-08-05T18:55:22.414Z,52.71
2022-08-05T18:57:53.981Z,52.81
2022-08-05T19:00:28.570Z,51.80
2022-08-05T19:03:03.561Z,52.04
2022-08-05T19:06:13.612Z,53.56
2022-08-05T19:08:21.949Z,53.10
2022-08-05T19:11:04.783Z,54.02
2022-08-05T19:13:38.611Z,52.27
2022-08-05T19:16:25.310Z,50.22
2022-08-05T19:18:57.503Z,49.56
2022-08-05T19:21:34.208Z,50.04
2022-08-05T19:24:08.913Z,49.13
2022-08-05T19:26:54.372Z,49.98
2022-08-05T19:29:26.808Z,50.42
2022-08-05T19:32:08.590Z,51.79
2022-08-05T19:34:41.936Z,50.61
2022-08-05T19:37:22.522Z,52.73
2022-08-05T19:40:08.219Z,56.43
2022-08-05T19:42:39.096Z,59.33
2022-08-05T19:45:08.816Z,53.99
2022-08-05T19:47:42.805Z,49.66
2022-08-05T19:50:12.777Z,52.84
2022-08-05T19:52:41.335Z,57.35
2022-08-05T19:56:18.414Z,52.86
2022-08-05T19:58:19.361Z,52.79
2022-08-05T20:00:48.410Z,51.30
2022-08-05T20:03:16.862Z,54.01
2022-08-05T20:05:51.193Z,54.31
2022-08-05T20:08:20.191Z,58.28
2022-08-05T20:10:49.742Z,52.34
2022-08-05T20:13:30.154Z,54.06
2022-08-05T20:16:07.353Z,52.25
2022-08-05T20:18:36.557Z,52.96
2022-08-05T20:21:07.514Z,57.31
2022-08-05T20:23:39.453Z,55.87
2022-08-05T20:26:19.786Z,54.85
2022-08-05T20:28:50.794Z,58.02
2022-08-05T20:31:21.711Z,56.66
2022-08-05T20:33:56.750Z,51.36
2022-08-05T20:36:27.030Z,51.66
2022-08-05T20:38:57.967Z,51.58
2022-08-05T20:41:43.335Z,55.99
2022-08-05T20:44:19.175Z,51.92
2022-08-05T20:46:58.948Z,55.76
2022-08-05T20:49:27.250Z,57.30
2022-08-05T20:51:58.092Z,58.71
2022-08-05T20:54:43.080Z,56.92
2022-08-05T20:57:24.625Z,60.22
2022-08-05T21:00:21.155Z,55.86
2022-08-05T21:03:01.261Z,55.40
2022-08-05T21:05:47.883Z,53.49
2022-08-05T21:08:20.042Z,58.90
2022-08-05T21:10:49.417Z,60.02
2022-08-05T21:13:26.417Z,57.72
2022-08-05T21:16:07.430Z,57.13
2022-08-05T21:18:36.102Z,56.49
2022-08-05T21:21:04.801Z,55.88
2022-08-05T21:23:37.235Z,56.14
2022-08-05T21:26:12.248Z,57.48
2022-08-05T21:28:41.089Z,57.88
2022-08-05T21:31:16.645Z,56.50
2022-08-05T21:33:47.538Z,56.96
2022-08-05T21:36:19.047Z,60.68
2022-08-05T21:38:57.671Z,61.66
2022-08-05T21:41:33.938Z,62.36
2022-08-05T21:44:04.255Z,60.57
2022-08-05T21:46:34.620Z,62.11
2022-08-05T21:49:04.759Z,62.66
2022-08-05T21:52:22.182Z,65.39
2022-08-05T21:54:27.915Z,64.55
2022-08-05T21:57:29.196Z,67.63
2022-08-05T22:00:03.980Z,65.79
2022-08-05T22:02:35.233Z,65.52
2022-08-05T22:05:04.629Z,65.87
2022-08-05T22:07:40.521Z,64.73
2022-08-05T22:10:27.105Z,66.66
2022-08-05T22:12:57.127Z,65.88
2022-08-05T22:16:00.750Z,63.51
2022-08-05T22:18:15.276Z,64.52
2022-08-05T22:20:48.073Z,65.89
2022-08-05T22:24:02.867Z,68.11
2022-08-05T22:26:49.752Z,67.36
2022-08-05T22:29:26.244Z,68.33
2022-08-05T22:31:59.628Z,66.97
2022-08-05T22:34:32.273Z,66.45
2022-08-05T22:37:03.967Z,66.62
2022-08-05T22:39:34.622Z,66.53
2022-08-05T22:42:12.734Z,66.40
2022-08-05T22:44:56.431Z,69.97
2022-08-05T22:47:28.937Z,68.64
2022-08-05T22:50:20.986Z,68.21
2022-08-05T22:52:49.450Z,73.20
2022-08-05T22:55:18.886Z,71.57
2022-08-05T22:57:50.460Z,72.40
2022-08-05T23:00:20.543Z,73.17
2022-08-05T23:02:50.218Z,75.09
2022-08-05T23:05:21.874Z,75.41
2022-08-05T23:07:51.518Z,74.11
2022-08-05T23:10:23.372Z,71.94
2022-08-05T23:12:55.707Z,73.45
2022-08-05T23:15:27.166Z,75.15
2022-08-05T23:18:00.531Z,80.71
2022-08-05T23:20:32.513Z,76.39
2022-08-05T23:23:03.452Z,76.61
2022-08-05T23:25:53.687Z,76.90
2022-08-05T23:28:29.105Z,77.54
2022-08-05T23:31:07.100Z,78.70
2022-08-05T23:34:05.505Z,78.80
2022-08-05T23:36:38.765Z,79.77
2022-08-05T23:39:17.303Z,82.37
2022-08-05T23:42:01.189Z,77.52
2022-08-05T23:44:32.473Z,78.59
2022-08-05T23:47:02.555Z,75.97
2022-08-05T23:49:43.493Z,76.06
2022-08-05T23:52:30.820Z,75.84
2022-08-05T23:55:02.357Z,78.16
2022-08-05T23:57:33.961Z,78.34
